sensor_id;sensor_type;location;lat;lon;timestamp;temperature;humidity
4453;DHT22;2239;48.152;11.584;2023-07-16T00:00:07;24.20;99.90
4453;DHT22;2239;48.152;11.584;2023-07-16T00:02:36;24.10;99.90
4453;DHT22;2239;48.152;11.584;2023-07-16T00:05:01;23.90;99.90
4453;DHT22;2239;48.152;11.584;2023-07-16T00:07:27;23.80;99.90
4453;DHT22;2239;48.152;11.584;2023-07-16T00:09:52;23.70;99.90
4453;DHT22;2239;48.152;11.584;2023-07-16T00:12:18;23.50;99.90
4453;DHT22;2239;48.152;11.584;2023-07-16T00:14:43;23.30;99.90
4453;DHT22;2239;48.152;11.584;2023-07-16T00:17:09;23.20;99.90
4453;DHT22;2239;48.152;11.584;2023-07-16T00:19:35;23.10;99.90
4453;DHT22;2239;48.152;11.584;2023-07-16T00:22:00;23.10;99.90
4453;DHT22;2239;48.152;11.584;2023-07-16T00:24:26;23.10;99.90
4453;DHT22;2239;48.152;11.584;2023-07-16T00:26:52;23.10;99.90
4453;DHT22;2239;48.152;11.584;2023-07-16T00:29:18;23.00;99.90
4453;DHT22;2239;48.152;11.584;2023-07-16T00:31:44;23.00;99.90
4453;DHT22;2239;48.152;11.584;2023-07-16T00:34:10;22.90;99.90
4453;DHT22;2239;48.152;11.584;2023-07-16T00:36:35;22.90;99.90
4453;DHT22;2239;48.152;11.584;2023-07-16T00:39:01;22.90;99.90
4453;DHT22;2239;48.152;11.584;2023-07-16T00:41:26;22.90;99.90
4453;DHT22;2239;48.152;11.584;2023-07-16T00:43:52;23.00;99.90
4453;DHT22;2239;48.152;11.584;2023-07-16T00:46:19;22.90;99.90
4453;DHT22;2239;48.152;11.584;2023-07-16T00:48:45;22.90;99.90
4453;DHT22;2239;48.152;11.584;2023-07-16T00:51:11;23.00;99.90
4453;DHT22;2239;48.152;11.584;2023-07-16T00:53:38;23.00;99.90
4453;DHT22;2239;48.152;11.584;2023-07-16T00:56:05;23.00;99.90
4453;DHT22;2239;48.152;11.584;2023-07-16T00:58:30;23.10;99.90
4453;DHT22;2239;48.152;11.584;2023-07-16T01:00:56;23.10;99.90
4453;DHT22;2239;48.152;11.584;2023-07-16T01:03:22;23.10;99.90
4453;DHT22;2239;48.152;11.584;2023-07-16T01:06:04;23.10;99.90
4453;DHT22;2239;48.152;11.584;2023-07-16T01:08:35;23.00;99.90
4453;DHT22;2239;48.152;11.584;2023-07-16T01:11:02;23.00;99.90
4453;DHT22;2239;48.152;11.584;2023-07-16T01:13:29;23.00;99.90
4453;DHT22;2239;48.152;11.584;2023-07-16T01:15:55;23.00;99.90
4453;DHT22;2239;48.152;11.584;2023-07-16T01:18:20;23.00;99.90
4453;DHT22;2239;48.152;11.584;2023-07-16T01:20:46;22.90;99.90
4453;DHT22;2239;48.152;11.584;2023-07-16T01:26:02;22.80;99.90
4453;DHT22;2239;48.152;11.584;2023-07-16T01:29:03;22.80;99.90
4453;DHT22;2239;48.152;11.584;2023-07-16T01:31:29;22.70;99.90
4453;DHT22;2239;48.152;11.584;2023-07-16T01:33:56;22.80;99.90
4453;DHT22;2239;48.152;11.584;2023-07-16T01:36:23;22.80;99.90
4453;DHT22;2239;48.152;11.584;2023-07-16T01:38:49;22.80;99.90
4453;DHT22;2239;48.152;11.584;2023-07-16T01:41:15;22.70;99.90
4453;DHT22;2239;48.152;11.584;2023-07-16T01:43:40;22.70;99.90
4453;DHT22;2239;48.152;11.584;2023-07-16T01:46:06;22.70;99.90
4453;DHT22;2239;48.152;11.584;2023-07-16T01:48:35;22.70;99.90
4453;DHT22;2239;48.152;11.584;2023-07-16T01:51:03;22.70;99.90
4453;DHT22;2239;48.152;11.584;2023-07-16T01:53:30;22.80;99.90
4453;DHT22;2239;48.152;11.584;2023-07-16T01:55:57;22.70;99.90
4453;DHT22;2239;48.152;11.584;2023-07-16T01:58:22;22.70;99.90
4453;DHT22;2239;48.152;11.584;2023-07-16T02:00:49;22.60;99.90
4453;DHT22;2239;48.152;11.584;2023-07-16T02:03:15;22.60;99.90
4453;DHT22;2239;48.152;11.584;2023-07-16T02:05:40;22.60;99.90
4453;DHT22;2239;48.152;11.584;2023-07-16T02:08:06;22.50;99.90
4453;DHT22;2239;48.152;11.584;2023-07-16T02:10:32;22.50;99.90
4453;DHT22;2239;48.152;11.584;2023-07-16T02:12:57;22.50;99.90
4453;DHT22;2239;48.152;11.584;2023-07-16T02:15:23;22.60;99.90
4453;DHT22;2239;48.152;11.584;2023-07-16T02:17:48;22.60;99.90
4453;DHT22;2239;48.152;11.584;2023-07-16T02:20:14;22.50;99.90
4453;DHT22;2239;48.152;11.584;2023-07-16T02:22:40;22.60;99.90
4453;DHT22;2239;48.152;11.584;2023-07-16T02:25:05;22.60;99.90
4453;DHT22;2239;48.152;11.584;2023-07-16T02:27:31;22.60;99.90
4453;DHT22;2239;48.152;11.584;2023-07-16T02:29:57;22.60;99.90
4453;DHT22;2239;48.152;11.584;2023-07-16T02:32:23;22.70;99.90
4453;DHT22;2239;48.152;11.584;2023-07-16T02:34:48;22.70;99.90
4453;DHT22;2239;48.152;11.584;2023-07-16T02:37:14;22.60;99.90
4453;DHT22;2239;48.152;11.584;2023-07-16T02:39:42;22.60;99.90
4453;DHT22;2239;48.152;11.584;2023-07-16T02:42:08;22.50;99.90
4453;DHT22;2239;48.152;11.584;2023-07-16T02:44:34;22.50;99.90
4453;DHT22;2239;48.152;11.584;2023-07-16T02:46:59;22.50;99.90
4453;DHT22;2239;48.152;11.584;2023-07-16T02:49:25;22.50;99.90
4453;DHT22;2239;48.152;11.584;2023-07-16T02:51:51;22.60;99.90
4453;DHT22;2239;48.152;11.584;2023-07-16T02:54:16;22.50;99.90
4453;DHT22;2239;48.152;11.584;2023-07-16T02:56:42;22.60;99.90
4453;DHT22;2239;48.152;11.584;2023-07-16T02:59:07;22.60;99.90
4453;DHT22;2239;48.152;11.584;2023-07-16T03:01:33;22.70;99.90
4453;DHT22;2239;48.152;11.584;2023-07-16T03:03:58;22.70;99.90
4453;DHT22;2239;48.152;11.584;2023-07-16T03:06:24;22.60;99.90
4453;DHT22;2239;48.152;11.584;2023-07-16T03:08:50;22.60;99.90
4453;DHT22;2239;48.152;11.584;2023-07-16T03:11:15;22.60;99.90
4453;DHT22;2239;48.152;11.584;2023-07-16T03:13:41;22.60;99.90
4453;DHT22;2239;48.152;11.584;2023-07-16T03:16:06;22.50;99.90
4453;DHT22;2239;48.152;11.584;2023-07-16T03:18:32;22.50;99.90
4453;DHT22;2239;48.152;11.584;2023-07-16T03:20:58;22.50;99.90
4453;DHT22;2239;48.152;11.584;2023-07-16T03:23:24;22.50;99.90
4453;DHT22;2239;48.152;11.584;2023-07-16T03:25:51;22.50;99.90
4453;DHT22;2239;48.152;11.584;2023-07-16T03:28:16;22.50;99.90
4453;DHT22;2239;48.152;11.584;2023-07-16T03:30:49;22.50;99.90
4453;DHT22;2239;48.152;11.584;2023-07-16T03:33:15;22.50;99.90
4453;DHT22;2239;48.152;11.584;2023-07-16T03:35:44;22.50;99.90
4453;DHT22;2239;48.152;11.584;2023-07-16T03:38:11;22.50;99.90
4453;DHT22;2239;48.152;11.584;2023-07-16T03:40:37;22.40;99.90
4453;DHT22;2239;48.152;11.584;2023-07-16T03:43:02;22.30;99.90
4453;DHT22;2239;48.152;11.584;2023-07-16T03:45:28;22.40;99.90
4453;DHT22;2239;48.152;11.584;2023-07-16T03:47:53;22.40;99.90
4453;DHT22;2239;48.152;11.584;2023-07-16T03:50:19;22.30;99.90
4453;DHT22;2239;48.152;11.584;2023-07-16T03:52:45;22.30;99.90
4453;DHT22;2239;48.152;11.584;2023-07-16T03:55:10;22.20;99.90
4453;DHT22;2239;48.152;11.584;2023-07-16T03:57:36;22.10;99.90
4453;DHT22;2239;48.152;11.584;2023-07-16T04:00:03;21.90;99.90
4453;DHT22;2239;48.152;11.584;2023-07-16T04:02:31;21.80;99.90
4453;DHT22;2239;48.152;11.584;2023-07-16T04:04:57;21.90;99.90
4453;DHT22;2239;48.152;11.584;2023-07-16T04:07:22;21.90;99.90
4453;DHT22;2239;48.152;11.584;2023-07-16T04:09:48;21.90;99.90
4453;DHT22;2239;48.152;11.584;2023-07-16T04:12:13;21.90;99.90
4453;DHT22;2239;48.152;11.584;2023-07-16T04:14:39;21.90;99.90
4453;DHT22;2239;48.152;11.584;2023-07-16T04:17:05;21.80;99.90
4453;DHT22;2239;48.152;11.584;2023-07-16T04:19:31;21.70;99.90
4453;DHT22;2239;48.152;11.584;2023-07-16T04:21:56;21.80;99.90
4453;DHT22;2239;48.152;11.584;2023-07-16T04:24:22;21.80;99.90
4453;DHT22;2239;48.152;11.584;2023-07-16T04:26:49;21.80;99.90
4453;DHT22;2239;48.152;11.584;2023-07-16T04:29:14;21.80;99.90
4453;DHT22;2239;48.152;11.584;2023-07-16T04:31:41;21.60;99.90
4453;DHT22;2239;48.152;11.584;2023-07-16T04:34:06;21.40;99.90
4453;DHT22;2239;48.152;11.584;2023-07-16T04:36:32;21.30;99.90
4453;DHT22;2239;48.152;11.584;2023-07-16T04:38:57;21.30;99.90
4453;DHT22;2239;48.152;11.584;2023-07-16T04:41:23;21.30;99.90
4453;DHT22;2239;48.152;11.584;2023-07-16T04:43:49;21.20;99.90
4453;DHT22;2239;48.152;11.584;2023-07-16T04:46:14;21.20;99.90
4453;DHT22;2239;48.152;11.584;2023-07-16T04:48:41;21.10;99.90
4453;DHT22;2239;48.152;11.584;2023-07-16T04:51:07;21.20;99.90
4453;DHT22;2239;48.152;11.584;2023-07-16T04:53:32;21.30;99.90
4453;DHT22;2239;48.152;11.584;2023-07-16T04:55:58;21.30;99.90
4453;DHT22;2239;48.152;11.584;2023-07-16T04:58:24;21.40;99.90
4453;DHT22;2239;48.152;11.584;2023-07-16T05:00:49;21.40;99.90
4453;DHT22;2239;48.152;11.584;2023-07-16T05:03:15;21.40;99.90
4453;DHT22;2239;48.152;11.584;2023-07-16T05:05:40;21.30;99.90
4453;DHT22;2239;48.152;11.584;2023-07-16T05:08:06;21.20;99.90
4453;DHT22;2239;48.152;11.584;2023-07-16T05:10:32;21.10;99.90
4453;DHT22;2239;48.152;11.584;2023-07-16T05:12:58;21.10;99.90
4453;DHT22;2239;48.152;11.584;2023-07-16T05:15:23;20.90;99.90
4453;DHT22;2239;48.152;11.584;2023-07-16T05:17:49;20.80;99.90
4453;DHT22;2239;48.152;11.584;2023-07-16T05:20:14;20.70;99.90
4453;DHT22;2239;48.152;11.584;2023-07-16T05:22:40;20.60;99.90
4453;DHT22;2239;48.152;11.584;2023-07-16T05:25:06;20.60;99.90
4453;DHT22;2239;48.152;11.584;2023-07-16T05:27:31;20.60;99.90
4453;DHT22;2239;48.152;11.584;2023-07-16T05:29:57;20.60;99.90
4453;DHT22;2239;48.152;11.584;2023-07-16T05:32:22;20.70;99.90
4453;DHT22;2239;48.152;11.584;2023-07-16T05:34:48;20.70;99.90
4453;DHT22;2239;48.152;11.584;2023-07-16T05:37:14;20.70;99.90
4453;DHT22;2239;48.152;11.584;2023-07-16T05:39:39;20.80;99.90
4453;DHT22;2239;48.152;11.584;2023-07-16T05:42:05;20.80;99.90
4453;DHT22;2239;48.152;11.584;2023-07-16T05:44:31;21.00;99.90
4453;DHT22;2239;48.152;11.584;2023-07-16T05:46:57;21.00;99.90
4453;DHT22;2239;48.152;11.584;2023-07-16T05:49:23;21.00;99.90
4453;DHT22;2239;48.152;11.584;2023-07-16T05:51:49;21.00;99.90
4453;DHT22;2239;48.152;11.584;2023-07-16T05:54:14;21.10;99.90
4453;DHT22;2239;48.152;11.584;2023-07-16T05:56:40;21.10;99.90
4453;DHT22;2239;48.152;11.584;2023-07-16T05:59:05;21.20;99.90
4453;DHT22;2239;48.152;11.584;2023-07-16T06:01:31;21.30;99.90
4453;DHT22;2239;48.152;11.584;2023-07-16T06:03:57;21.40;99.90
4453;DHT22;2239;48.152;11.584;2023-07-16T06:06:22;21.50;99.90
4453;DHT22;2239;48.152;11.584;2023-07-16T06:08:48;21.60;99.90
4453;DHT22;2239;48.152;11.584;2023-07-16T06:11:14;21.70;99.90
4453;DHT22;2239;48.152;11.584;2023-07-16T06:13:40;21.70;99.90
4453;DHT22;2239;48.152;11.584;2023-07-16T06:16:05;21.70;99.90
4453;DHT22;2239;48.152;11.584;2023-07-16T06:18:31;21.80;99.90
4453;DHT22;2239;48.152;11.584;2023-07-16T06:20:56;21.70;99.90
4453;DHT22;2239;48.152;11.584;2023-07-16T06:23:22;21.70;99.90
4453;DHT22;2239;48.152;11.584;2023-07-16T06:25:48;21.70;99.90
4453;DHT22;2239;48.152;11.584;2023-07-16T06:28:15;21.90;99.90
4453;DHT22;2239;48.152;11.584;2023-07-16T06:30:40;22.10;99.90
4453;DHT22;2239;48.152;11.584;2023-07-16T06:33:06;22.10;99.90
4453;DHT22;2239;48.152;11.584;2023-07-16T06:35:32;22.20;99.90
4453;DHT22;2239;48.152;11.584;2023-07-16T06:37:57;22.30;99.90
4453;DHT22;2239;48.152;11.584;2023-07-16T06:40:24;22.30;99.90
4453;DHT22;2239;48.152;11.584;2023-07-16T06:42:50;22.10;99.90
4453;DHT22;2239;48.152;11.584;2023-07-16T06:45:17;22.10;99.90
4453;DHT22;2239;48.152;11.584;2023-07-16T06:47:43;22.10;99.90
4453;DHT22;2239;48.152;11.584;2023-07-16T06:50:09;22.30;99.90
4453;DHT22;2239;48.152;11.584;2023-07-16T06:52:35;22.30;99.90
4453;DHT22;2239;48.152;11.584;2023-07-16T06:55:00;22.50;99.90
4453;DHT22;2239;48.152;11.584;2023-07-16T06:57:26;22.60;99.90
4453;DHT22;2239;48.152;11.584;2023-07-16T06:59:51;22.80;99.90
4453;DHT22;2239;48.152;11.584;2023-07-16T07:02:17;23.00;99.90
4453;DHT22;2239;48.152;11.584;2023-07-16T07:04:43;23.10;99.90
4453;DHT22;2239;48.152;11.584;2023-07-16T07:07:09;23.10;99.90
4453;DHT22;2239;48.152;11.584;2023-07-16T07:09:34;23.00;99.90
4453;DHT22;2239;48.152;11.584;2023-07-16T07:12:00;23.00;99.90
4453;DHT22;2239;48.152;11.584;2023-07-16T07:14:26;23.00;99.90
4453;DHT22;2239;48.152;11.584;2023-07-16T07:16:51;23.10;99.90
4453;DHT22;2239;48.152;11.584;2023-07-16T07:19:17;23.10;99.90
4453;DHT22;2239;48.152;11.584;2023-07-16T07:21:43;23.20;99.90
4453;DHT22;2239;48.152;11.584;2023-07-16T07:24:08;23.20;99.90
4453;DHT22;2239;48.152;11.584;2023-07-16T07:26:34;23.20;99.90
4453;DHT22;2239;48.152;11.584;2023-07-16T07:28:59;23.30;99.90
4453;DHT22;2239;48.152;11.584;2023-07-16T07:31:25;23.50;99.90
4453;DHT22;2239;48.152;11.584;2023-07-16T07:33:51;23.50;99.90
4453;DHT22;2239;48.152;11.584;2023-07-16T07:36:16;23.50;99.90
4453;DHT22;2239;48.152;11.584;2023-07-16T07:38:42;23.50;99.90
4453;DHT22;2239;48.152;11.584;2023-07-16T07:41:07;23.50;99.90
4453;DHT22;2239;48.152;11.584;2023-07-16T07:43:33;23.50;99.90
4453;DHT22;2239;48.152;11.584;2023-07-16T07:45:58;23.50;99.90
4453;DHT22;2239;48.152;11.584;2023-07-16T07:48:24;23.50;99.90
4453;DHT22;2239;48.152;11.584;2023-07-16T07:50:49;23.40;99.90
4453;DHT22;2239;48.152;11.584;2023-07-16T07:53:16;23.50;99.90
4453;DHT22;2239;48.152;11.584;2023-07-16T07:55:43;23.50;99.90
4453;DHT22;2239;48.152;11.584;2023-07-16T07:58:09;23.60;99.90
4453;DHT22;2239;48.152;11.584;2023-07-16T08:00:34;23.60;99.90
4453;DHT22;2239;48.152;11.584;2023-07-16T08:03:00;23.80;99.90
4453;DHT22;2239;48.152;11.584;2023-07-16T08:05:26;23.70;99.90
4453;DHT22;2239;48.152;11.584;2023-07-16T08:07:51;23.70;99.90
4453;DHT22;2239;48.152;11.584;2023-07-16T08:10:17;23.60;99.90
4453;DHT22;2239;48.152;11.584;2023-07-16T08:12:43;23.60;99.90
4453;DHT22;2239;48.152;11.584;2023-07-16T08:15:10;23.60;99.90
4453;DHT22;2239;48.152;11.584;2023-07-16T08:17:40;23.70;99.90
4453;DHT22;2239;48.152;11.584;2023-07-16T08:20:06;23.90;99.90
4453;DHT22;2239;48.152;11.584;2023-07-16T08:22:32;24.20;99.90
4453;DHT22;2239;48.152;11.584;2023-07-16T08:24:58;24.50;99.90
4453;DHT22;2239;48.152;11.584;2023-07-16T08:27:23;24.60;99.90
4453;DHT22;2239;48.152;11.584;2023-07-16T08:29:49;24.90;99.90
4453;DHT22;2239;48.152;11.584;2023-07-16T08:32:15;25.10;99.90
4453;DHT22;2239;48.152;11.584;2023-07-16T08:34:40;25.30;99.90
4453;DHT22;2239;48.152;11.584;2023-07-16T08:37:06;25.50;99.90
4453;DHT22;2239;48.152;11.584;2023-07-16T08:39:31;25.80;99.90
4453;DHT22;2239;48.152;11.584;2023-07-16T08:41:58;25.60;99.90
4453;DHT22;2239;48.152;11.584;2023-07-16T08:44:23;25.70;99.90
4453;DHT22;2239;48.152;11.584;2023-07-16T08:46:50;25.70;99.90
4453;DHT22;2239;48.152;11.584;2023-07-16T08:49:18;25.80;99.90
4453;DHT22;2239;48.152;11.584;2023-07-16T08:51:47;26.00;99.90
4453;DHT22;2239;48.152;11.584;2023-07-16T08:54:13;26.00;99.90
4453;DHT22;2239;48.152;11.584;2023-07-16T08:56:45;26.00;99.90
4453;DHT22;2239;48.152;11.584;2023-07-16T08:59:11;26.20;99.90
4453;DHT22;2239;48.152;11.584;2023-07-16T09:01:37;26.50;99.90
4453;DHT22;2239;48.152;11.584;2023-07-16T09:04:03;26.60;99.60
4453;DHT22;2239;48.152;11.584;2023-07-16T09:06:28;26.60;99.20
4453;DHT22;2239;48.152;11.584;2023-07-16T09:08:54;26.90;99.10
4453;DHT22;2239;48.152;11.584;2023-07-16T09:11:20;27.10;98.20
4453;DHT22;2239;48.152;11.584;2023-07-16T09:13:47;26.70;97.50
4453;DHT22;2239;48.152;11.584;2023-07-16T09:16:13;26.20;98.30
4453;DHT22;2239;48.152;11.584;2023-07-16T09:18:41;26.10;98.30
4453;DHT22;2239;48.152;11.584;2023-07-16T09:21:07;26.00;96.80
4453;DHT22;2239;48.152;11.584;2023-07-16T09:23:33;26.20;96.70
4453;DHT22;2239;48.152;11.584;2023-07-16T09:25:59;26.40;95.60
4453;DHT22;2239;48.152;11.584;2023-07-16T09:28:24;26.40;96.10
4453;DHT22;2239;48.152;11.584;2023-07-16T09:30:51;26.40;96.50
4453;DHT22;2239;48.152;11.584;2023-07-16T09:33:19;26.20;96.60
4453;DHT22;2239;48.152;11.584;2023-07-16T09:35:51;26.20;97.30
4453;DHT22;2239;48.152;11.584;2023-07-16T09:38:17;26.50;96.80
4453;DHT22;2239;48.152;11.584;2023-07-16T09:40:43;26.80;96.00
4453;DHT22;2239;48.152;11.584;2023-07-16T09:43:10;27.20;95.80
4453;DHT22;2239;48.152;11.584;2023-07-16T09:45:36;27.30;95.50
4453;DHT22;2239;48.152;11.584;2023-07-16T09:48:03;27.50;95.60
4453;DHT22;2239;48.152;11.584;2023-07-16T09:50:33;28.00;94.70
4453;DHT22;2239;48.152;11.584;2023-07-16T09:53:00;28.10;93.30
4453;DHT22;2239;48.152;11.584;2023-07-16T09:55:26;27.80;93.20
4453;DHT22;2239;48.152;11.584;2023-07-16T09:57:55;27.70;93.30
4453;DHT22;2239;48.152;11.584;2023-07-16T10:00:21;27.70;93.20
4453;DHT22;2239;48.152;11.584;2023-07-16T10:02:48;27.90;92.90
4453;DHT22;2239;48.152;11.584;2023-07-16T10:05:19;28.40;92.70
4453;DHT22;2239;48.152;11.584;2023-07-16T10:07:56;28.50;91.70
4453;DHT22;2239;48.152;11.584;2023-07-16T10:10:37;28.50;91.50
4453;DHT22;2239;48.152;11.584;2023-07-16T10:13:04;28.60;91.20
4453;DHT22;2239;48.152;11.584;2023-07-16T10:15:30;28.50;90.90
4453;DHT22;2239;48.152;11.584;2023-07-16T10:17:56;28.60;91.50
4453;DHT22;2239;48.152;11.584;2023-07-16T10:20:32;28.80;90.60
4453;DHT22;2239;48.152;11.584;2023-07-16T10:23:09;28.70;90.00
4453;DHT22;2239;48.152;11.584;2023-07-16T10:26:02;29.00;89.60
4453;DHT22;2239;48.152;11.584;2023-07-16T10:28:32;29.30;87.50
4453;DHT22;2239;48.152;11.584;2023-07-16T10:30:58;29.30;87.50
4453;DHT22;2239;48.152;11.584;2023-07-16T10:33:24;29.30;85.70
4453;DHT22;2239;48.152;11.584;2023-07-16T10:35:49;29.30;85.90
4453;DHT22;2239;48.152;11.584;2023-07-16T10:38:15;29.00;86.70
4453;DHT22;2239;48.152;11.584;2023-07-16T10:40:41;28.50;88.10
4453;DHT22;2239;48.152;11.584;2023-07-16T10:43:07;28.40;89.20
4453;DHT22;2239;48.152;11.584;2023-07-16T10:45:33;28.20;90.00
4453;DHT22;2239;48.152;11.584;2023-07-16T10:47:59;28.10;90.50
4453;DHT22;2239;48.152;11.584;2023-07-16T10:50:25;28.00;90.40
4453;DHT22;2239;48.152;11.584;2023-07-16T10:52:51;27.70;90.50
4453;DHT22;2239;48.152;11.584;2023-07-16T10:55:18;27.70;90.20
4453;DHT22;2239;48.152;11.584;2023-07-16T10:57:43;27.80;90.30
4453;DHT22;2239;48.152;11.584;2023-07-16T11:00:10;28.00;89.80
4453;DHT22;2239;48.152;11.584;2023-07-16T11:02:39;28.50;89.80
4453;DHT22;2239;48.152;11.584;2023-07-16T11:05:13;29.10;88.20
4453;DHT22;2239;48.152;11.584;2023-07-16T11:07:49;29.50;88.20
4453;DHT22;2239;48.152;11.584;2023-07-16T11:10:18;29.40;87.80
4453;DHT22;2239;48.152;11.584;2023-07-16T11:12:55;29.00;88.70
4453;DHT22;2239;48.152;11.584;2023-07-16T11:15:33;28.80;88.80
4453;DHT22;2239;48.152;11.584;2023-07-16T11:18:00;28.90;89.60
4453;DHT22;2239;48.152;11.584;2023-07-16T11:20:26;29.30;88.20
4453;DHT22;2239;48.152;11.584;2023-07-16T11:22:51;29.70;86.80
4453;DHT22;2239;48.152;11.584;2023-07-16T11:25:17;30.30;85.90
4453;DHT22;2239;48.152;11.584;2023-07-16T11:27:43;30.60;83.80
4453;DHT22;2239;48.152;11.584;2023-07-16T11:30:09;30.60;82.80
4453;DHT22;2239;48.152;11.584;2023-07-16T11:32:42;30.40;82.20
4453;DHT22;2239;48.152;11.584;2023-07-16T11:35:10;30.30;83.20
4453;DHT22;2239;48.152;11.584;2023-07-16T11:37:36;30.60;82.20
4453;DHT22;2239;48.152;11.584;2023-07-16T11:40:07;30.90;81.50
4453;DHT22;2239;48.152;11.584;2023-07-16T11:42:37;31.30;80.60
4453;DHT22;2239;48.152;11.584;2023-07-16T11:45:03;31.50;78.80
4453;DHT22;2239;48.152;11.584;2023-07-16T11:47:30;31.60;78.40
4453;DHT22;2239;48.152;11.584;2023-07-16T11:49:56;31.70;77.60
4453;DHT22;2239;48.152;11.584;2023-07-16T11:52:24;31.30;77.00
4453;DHT22;2239;48.152;11.584;2023-07-16T11:54:52;31.30;78.70
4453;DHT22;2239;48.152;11.584;2023-07-16T11:57:17;30.90;79.60
4453;DHT22;2239;48.152;11.584;2023-07-16T11:59:43;31.10;80.00
4453;DHT22;2239;48.152;11.584;2023-07-16T12:02:09;31.50;78.60
4453;DHT22;2239;48.152;11.584;2023-07-16T12:04:34;31.60;77.40
4453;DHT22;2239;48.152;11.584;2023-07-16T12:07:00;31.80;77.40
4453;DHT22;2239;48.152;11.584;2023-07-16T12:09:25;31.40;77.60
4453;DHT22;2239;48.152;11.584;2023-07-16T12:11:51;30.90;77.90
4453;DHT22;2239;48.152;11.584;2023-07-16T12:14:17;30.50;80.10
4453;DHT22;2239;48.152;11.584;2023-07-16T12:16:42;30.30;79.70
4453;DHT22;2239;48.152;11.584;2023-07-16T12:19:08;30.20;80.50
4453;DHT22;2239;48.152;11.584;2023-07-16T12:21:34;30.10;81.30
4453;DHT22;2239;48.152;11.584;2023-07-16T12:24:00;30.10;81.50
4453;DHT22;2239;48.152;11.584;2023-07-16T12:26:25;30.00;81.10
4453;DHT22;2239;48.152;11.584;2023-07-16T12:28:51;29.90;81.60
4453;DHT22;2239;48.152;11.584;2023-07-16T12:31:17;30.00;82.40
4453;DHT22;2239;48.152;11.584;2023-07-16T12:33:43;30.20;82.00
4453;DHT22;2239;48.152;11.584;2023-07-16T12:36:09;30.10;82.70
4453;DHT22;2239;48.152;11.584;2023-07-16T12:38:34;30.00;82.70
4453;DHT22;2239;48.152;11.584;2023-07-16T12:41:00;29.60;82.90
4453;DHT22;2239;48.152;11.584;2023-07-16T12:43:26;29.30;84.80
4453;DHT22;2239;48.152;11.584;2023-07-16T12:45:51;29.00;86.00
4453;DHT22;2239;48.152;11.584;2023-07-16T12:48:17;28.90;87.30
4453;DHT22;2239;48.152;11.584;2023-07-16T12:50:42;28.80;87.90
4453;DHT22;2239;48.152;11.584;2023-07-16T12:53:08;28.90;88.10
4453;DHT22;2239;48.152;11.584;2023-07-16T12:55:34;29.00;87.60
4453;DHT22;2239;48.152;11.584;2023-07-16T12:57:59;29.00;88.10
4453;DHT22;2239;48.152;11.584;2023-07-16T13:00:25;29.10;88.30
4453;DHT22;2239;48.152;11.584;2023-07-16T13:02:51;29.20;88.20
4453;DHT22;2239;48.152;11.584;2023-07-16T13:05:16;29.20;88.60
4453;DHT22;2239;48.152;11.584;2023-07-16T13:07:42;29.40;89.60
4453;DHT22;2239;48.152;11.584;2023-07-16T13:10:08;29.70;87.90
4453;DHT22;2239;48.152;11.584;2023-07-16T13:12:34;30.00;86.40
4453;DHT22;2239;48.152;11.584;2023-07-16T13:15:00;30.40;85.30
4453;DHT22;2239;48.152;11.584;2023-07-16T13:17:25;30.60;86.40
4453;DHT22;2239;48.152;11.584;2023-07-16T13:19:51;30.60;86.30
4453;DHT22;2239;48.152;11.584;2023-07-16T13:22:16;30.50;86.20
4453;DHT22;2239;48.152;11.584;2023-07-16T13:24:42;30.20;86.00
4453;DHT22;2239;48.152;11.584;2023-07-16T13:27:09;29.90;86.80
4453;DHT22;2239;48.152;11.584;2023-07-16T13:29:44;29.70;87.50
4453;DHT22;2239;48.152;11.584;2023-07-16T13:32:09;29.60;88.50
4453;DHT22;2239;48.152;11.584;2023-07-16T13:34:35;29.70;89.60
4453;DHT22;2239;48.152;11.584;2023-07-16T13:37:00;29.80;88.80
4453;DHT22;2239;48.152;11.584;2023-07-16T13:39:26;30.00;88.70
4453;DHT22;2239;48.152;11.584;2023-07-16T13:41:52;30.10;88.50
4453;DHT22;2239;48.152;11.584;2023-07-16T13:44:17;30.20;87.50
4453;DHT22;2239;48.152;11.584;2023-07-16T13:46:43;30.20;87.90
4453;DHT22;2239;48.152;11.584;2023-07-16T13:49:09;30.20;88.00
4453;DHT22;2239;48.152;11.584;2023-07-16T13:51:34;29.70;88.60
4453;DHT22;2239;48.152;11.584;2023-07-16T13:54:00;29.20;90.20
4453;DHT22;2239;48.152;11.584;2023-07-16T13:56:25;29.00;90.60
4453;DHT22;2239;48.152;11.584;2023-07-16T13:58:51;29.00;90.70
4453;DHT22;2239;48.152;11.584;2023-07-16T14:01:19;29.10;90.80
4453;DHT22;2239;48.152;11.584;2023-07-16T14:03:44;29.20;90.70
4453;DHT22;2239;48.152;11.584;2023-07-16T14:06:10;29.30;90.80
4453;DHT22;2239;48.152;11.584;2023-07-16T14:08:36;29.30;90.60
4453;DHT22;2239;48.152;11.584;2023-07-16T14:11:02;29.30;90.60
4453;DHT22;2239;48.152;11.584;2023-07-16T14:13:28;29.30;90.70
4453;DHT22;2239;48.152;11.584;2023-07-16T14:15:54;29.10;91.00
4453;DHT22;2239;48.152;11.584;2023-07-16T14:18:19;29.00;91.30
4453;DHT22;2239;48.152;11.584;2023-07-16T14:20:45;28.80;91.30
4453;DHT22;2239;48.152;11.584;2023-07-16T14:23:10;28.70;91.60
4453;DHT22;2239;48.152;11.584;2023-07-16T14:25:36;28.60;92.00
4453;DHT22;2239;48.152;11.584;2023-07-16T14:28:02;28.70;92.40
4453;DHT22;2239;48.152;11.584;2023-07-16T14:30:27;28.60;92.40
4453;DHT22;2239;48.152;11.584;2023-07-16T14:32:53;28.50;92.60
4453;DHT22;2239;48.152;11.584;2023-07-16T14:35:18;28.50;92.60
4453;DHT22;2239;48.152;11.584;2023-07-16T14:37:44;28.40;92.90
4453;DHT22;2239;48.152;11.584;2023-07-16T14:40:10;28.10;93.10
4453;DHT22;2239;48.152;11.584;2023-07-16T14:42:36;27.90;93.40
4453;DHT22;2239;48.152;11.584;2023-07-16T14:45:01;27.80;93.80
4453;DHT22;2239;48.152;11.584;2023-07-16T14:47:30;27.80;94.00
4453;DHT22;2239;48.152;11.584;2023-07-16T14:49:55;27.90;94.10
4453;DHT22;2239;48.152;11.584;2023-07-16T14:52:21;28.00;93.70
4453;DHT22;2239;48.152;11.584;2023-07-16T14:54:46;28.10;93.60
4453;DHT22;2239;48.152;11.584;2023-07-16T14:57:12;28.20;93.50
4453;DHT22;2239;48.152;11.584;2023-07-16T14:59:37;28.10;93.70
4453;DHT22;2239;48.152;11.584;2023-07-16T15:02:04;28.10;93.70
4453;DHT22;2239;48.152;11.584;2023-07-16T15:04:29;28.20;93.40
4453;DHT22;2239;48.152;11.584;2023-07-16T15:06:55;28.10;93.50
4453;DHT22;2239;48.152;11.584;2023-07-16T15:09:21;28.20;93.30
4453;DHT22;2239;48.152;11.584;2023-07-16T15:11:47;28.20;93.20
4453;DHT22;2239;48.152;11.584;2023-07-16T15:14:13;28.30;93.00
4453;DHT22;2239;48.152;11.584;2023-07-16T15:16:39;28.30;93.20
4453;DHT22;2239;48.152;11.584;2023-07-16T15:19:04;28.40;92.80
4453;DHT22;2239;48.152;11.584;2023-07-16T15:21:30;28.30;92.70
4453;DHT22;2239;48.152;11.584;2023-07-16T15:23:55;28.20;92.90
4453;DHT22;2239;48.152;11.584;2023-07-16T15:26:21;28.10;93.10
4453;DHT22;2239;48.152;11.584;2023-07-16T15:28:46;28.10;93.10
4453;DHT22;2239;48.152;11.584;2023-07-16T15:31:12;28.10;93.00
4453;DHT22;2239;48.152;11.584;2023-07-16T15:33:38;28.20;93.10
4453;DHT22;2239;48.152;11.584;2023-07-16T15:36:04;28.20;93.10
4453;DHT22;2239;48.152;11.584;2023-07-16T15:38:30;28.10;93.00
4453;DHT22;2239;48.152;11.584;2023-07-16T15:40:55;27.90;93.30